Weather reports worldwide

Advertisment
Preston, Moor Park, United Kingdom (99113): temperature & dewpoint: 17.09.2020 08:00:00 - 23.09.2020 08:00:00 (BST)Preston, Moor Park, United Kingdom (99113): precipitation: 17.09.2020 08:00:00 - 23.09.2020 08:00:00 (BST)
Date & Time tt [°C] td [°C] rr [mm]
23.09.2020 08:00:00 - - -
23.09.2020 07:00:00 11,7 11,5 1,8
23.09.2020 06:00:00 11,6 11,3 1,6
23.09.2020 05:00:00 11,8 11,2 1,0
23.09.2020 04:00:00 13,4 13,0 0,2
23.09.2020 03:00:00 13,6 13,2 0,6
23.09.2020 02:00:00 14,4 13,3 0,0
23.09.2020 01:00:00 14,3 13,0 0,2
23.09.2020 00:00:00 15,0 12,7 0,0
22.09.2020 23:00:00 15,2 12,7 0,0
22.09.2020 22:00:00 15,3 12,8 0,0
22.09.2020 21:00:00 15,4 13,1 0,0
22.09.2020 20:00:00 15,7 13,1 0,0
22.09.2020 19:00:00 16,0 12,8 0,0
22.09.2020 18:00:00 16,2 13,0 0,0
22.09.2020 17:00:00 16,0 13,2 0,0
22.09.2020 16:00:00 15,8 13,2 0,0
22.09.2020 15:00:00 15,8 13,1 0,0
22.09.2020 14:00:00 16,2 13,8 0,0
22.09.2020 13:00:00 17,9 13,9 0,0
22.09.2020 12:00:00 17,4 13,6 0,0
22.09.2020 11:00:00 16,4 13,2 0,0
22.09.2020 10:00:00 15,0 13,0 0,0
22.09.2020 09:00:00 12,0 11,9 0,0
22.09.2020 08:00:00 8,8 8,8 0,0
22.09.2020 07:00:00 8,5 8,4 0,0
22.09.2020 06:00:00 8,2 8,1 0,0
22.09.2020 05:00:00 8,4 8,4 0,0
22.09.2020 04:00:00 9,1 9,1 0,0
22.09.2020 03:00:00 8,8 8,8 0,0
22.09.2020 02:00:00 9,3 9,2 0,0
22.09.2020 01:00:00 9,4 9,2 0,0
22.09.2020 00:00:00 10,4 10,2 0,0
21.09.2020 23:00:00 11,0 10,8 0,0
21.09.2020 22:00:00 11,4 10,9 0,0
21.09.2020 21:00:00 12,4 11,4 0,0
21.09.2020 20:00:00 - - 0,0
21.09.2020 19:00:00 - - 0,0
21.09.2020 18:00:00 - - 0,0
21.09.2020 17:00:00 - - 0,0
21.09.2020 16:00:00 - - 0,0
21.09.2020 15:00:00 - - 0,2
21.09.2020 14:00:00 19,3 12,9 0,0
21.09.2020 13:00:00 18,0 12,3 0,0
21.09.2020 12:00:00 18,2 13,2 0,0
21.09.2020 11:00:00 15,6 12,2 0,0
21.09.2020 10:00:00 13,7 11,2 0,0
21.09.2020 09:00:00 11,3 9,3 0,0
21.09.2020 08:00:00 8,4 7,8 0,0
21.09.2020 07:00:00 7,4 6,9 0,0
21.09.2020 06:00:00 7,8 7,3 0,0
21.09.2020 05:00:00 8,1 7,4 0,0
21.09.2020 04:00:00 8,3 7,4 0,0
21.09.2020 03:00:00 8,4 7,4 0,0
21.09.2020 02:00:00 9,3 8,2 0,0
21.09.2020 01:00:00 9,7 8,6 0,0
21.09.2020 00:00:00 10,0 8,8 0,0
20.09.2020 23:00:00 10,3 9,0 0,0
20.09.2020 22:00:00 11,1 9,4 0,0
20.09.2020 21:00:00 11,5 9,3 0,0
20.09.2020 20:00:00 12,8 10,0 0,0
20.09.2020 19:00:00 14,7 10,4 0,0
20.09.2020 18:00:00 16,1 10,1 0,0
20.09.2020 17:00:00 17,3 10,7 0,0
20.09.2020 16:00:00 17,6 10,7 0,0
20.09.2020 15:00:00 17,5 10,5 0,0
20.09.2020 14:00:00 17,0 10,9 0,0
20.09.2020 13:00:00 16,2 10,8 0,0
20.09.2020 12:00:00 15,8 10,5 0,0
20.09.2020 11:00:00 14,5 9,8 0,0
20.09.2020 10:00:00 13,5 11,0 0,0
20.09.2020 09:00:00 12,8 10,3 0,0
20.09.2020 08:00:00 12,6 9,2 0,0
20.09.2020 07:00:00 12,1 8,9 0,0
20.09.2020 06:00:00 10,3 8,6 0,0
20.09.2020 05:00:00 10,1 8,4 0,0
20.09.2020 04:00:00 10,7 8,6 0,0
20.09.2020 03:00:00 10,7 8,6 0,0
20.09.2020 02:00:00 10,1 7,9 0,0
20.09.2020 01:00:00 11,3 8,3 0,0
20.09.2020 00:00:00 12,0 8,4 0,0
19.09.2020 23:00:00 12,4 9,0 0,0
19.09.2020 22:00:00 12,3 9,2 0,0
19.09.2020 21:00:00 12,4 9,0 0,0
19.09.2020 20:00:00 13,9 9,1 0,0
19.09.2020 19:00:00 15,5 8,7 0,0
19.09.2020 18:00:00 16,6 9,3 0,0
19.09.2020 17:00:00 17,6 9,5 0,0
19.09.2020 16:00:00 17,9 9,1 0,0
19.09.2020 15:00:00 17,9 9,8 0,0
19.09.2020 14:00:00 17,3 10,0 0,0
19.09.2020 13:00:00 16,2 9,0 0,0
19.09.2020 12:00:00 15,9 9,5 0,0
19.09.2020 11:00:00 15,2 9,4 0,0
19.09.2020 10:00:00 13,9 9,2 0,0
19.09.2020 09:00:00 12,8 8,7 0,0
19.09.2020 08:00:00 12,4 8,7 0,0
19.09.2020 07:00:00 12,2 8,6 0,0
19.09.2020 06:00:00 11,5 8,2 0,0
19.09.2020 05:00:00 11,7 8,0 0,0
19.09.2020 04:00:00 11,8 8,1 0,0
19.09.2020 03:00:00 11,4 8,3 0,0
19.09.2020 02:00:00 11,1 8,0 0,0
19.09.2020 01:00:00 11,3 8,0 0,0
19.09.2020 00:00:00 11,6 8,1 0,0
18.09.2020 23:00:00 11,9 7,8 0,0
18.09.2020 22:00:00 12,5 8,5 0,0
18.09.2020 21:00:00 12,6 8,8 0,0
18.09.2020 20:00:00 13,7 9,1 0,0
18.09.2020 19:00:00 15,0 9,0 0,0
18.09.2020 18:00:00 16,2 8,8 0,0
18.09.2020 17:00:00 17,3 8,3 0,0
18.09.2020 16:00:00 17,9 10,1 0,0
18.09.2020 15:00:00 17,4 9,2 0,0
18.09.2020 14:00:00 15,7 8,9 0,0
18.09.2020 13:00:00 15,3 8,8 0,0
18.09.2020 12:00:00 14,1 8,8 0,0
18.09.2020 11:00:00 14,4 9,2 0,0
18.09.2020 10:00:00 13,1 9,3 0,0
18.09.2020 09:00:00 11,0 8,6 0,0
18.09.2020 08:00:00 8,8 8,0 0,0
18.09.2020 07:00:00 7,8 7,3 0,0
18.09.2020 06:00:00 8,4 7,7 0,0
18.09.2020 05:00:00 8,9 8,1 0,0
18.09.2020 04:00:00 9,4 8,4 0,0
18.09.2020 03:00:00 9,8 8,7 -
18.09.2020 02:00:00 10,5 8,9 0,0
18.09.2020 01:00:00 11,3 8,7 0,0
18.09.2020 00:00:00 12,1 8,8 0,0
17.09.2020 23:00:00 12,8 9,4 0,0
17.09.2020 22:00:00 13,5 9,9 0,0
17.09.2020 21:00:00 13,9 9,5 0,0
17.09.2020 20:00:00 14,7 9,6 0,0
17.09.2020 19:00:00 16,5 9,4 0,0
17.09.2020 18:00:00 17,7 9,1 0,0
17.09.2020 17:00:00 18,3 9,4 0,0
17.09.2020 16:00:00 18,5 10,0 0,0
17.09.2020 15:00:00 18,8 9,0 0,0
17.09.2020 14:00:00 18,4 8,5 0,0
17.09.2020 13:00:00 17,5 8,1 0,0
17.09.2020 12:00:00 16,8 9,3 0,0
17.09.2020 11:00:00 15,0 9,0 0,0
17.09.2020 10:00:00 12,5 9,1 0,0
17.09.2020 09:00:00 11,9 8,8 0,0
17.09.2020 08:00:00 11,5 8,8 0,0

tt = temperature
td = dewpoint
rr = precipitation

Next stations